Time;durP1;ratioP1;P1;durP2;ratioP2;P2;SDS_P1;SDS_P2;PMS_P1;PMS_P2;Temp;Humidity;BMP_temperature;BMP_pressure;BME280_temperature;BME280_humidity;BME280_pressure;Samples;Min_cycle;Max_cycle;Signal;HPM_P1;HPM_P2
2024/01/09 00:00:25;;;;;;;12.93;4.60;;;-4.00;96.90;;;;;;5069552;28;20033;-73
2024/01/09 00:02:51;;;;;;;9.18;4.45;;;-3.90;96.90;;;;;;5060664;28;20470;-73
2024/01/09 00:05:17;;;;;;;9.68;4.35;;;-4.00;96.90;;;;;;5063202;28;20107;-73
2024/01/09 00:07:42;;;;;;;10.30;4.10;;;-4.00;96.90;;;;;;5066361;28;20028;-73
2024/01/09 00:10:08;;;;;;;12.38;5.03;;;-4.00;97.00;;;;;;5054360;28;20025;-73
2024/01/09 00:12:34;;;;;;;11.70;4.68;;;-4.00;97.10;;;;;;5063481;28;20732;-73
2024/01/09 00:15:00;;;;;;;12.57;4.15;;;-4.10;97.10;;;;;;5059175;28;20033;-73
2024/01/09 00:17:28;;;;;;;13.57;4.47;;;-4.10;97.10;;;;;;5065240;28;20062;-73
2024/01/09 00:19:53;;;;;;;12.18;5.00;;;-4.10;97.10;;;;;;5071103;28;20021;-73
2024/01/09 00:22:19;;;;;;;10.88;5.05;;;-4.10;97.20;;;;;;5059009;28;20366;-73
2024/01/09 00:24:44;;;;;;;9.35;4.43;;;-4.20;97.20;;;;;;5069081;28;20032;-73
2024/01/09 00:27:10;;;;;;;11.52;4.68;;;-4.20;97.30;;;;;;5068658;28;20024;-73
2024/01/09 00:29:35;;;;;;;12.02;4.35;;;-4.20;97.30;;;;;;5060938;28;20025;-73
2024/01/09 00:32:01;;;;;;;9.65;4.30;;;-4.20;97.30;;;;;;5057394;28;20024;-73
2024/01/09 00:34:27;;;;;;;10.40;4.40;;;-4.20;97.40;;;;;;5065227;28;20024;-74
2024/01/09 00:36:55;;;;;;;14.80;4.53;;;-4.30;97.50;;;;;;5059407;28;20024;-73
2024/01/09 00:39:21;;;;;;;12.63;5.53;;;-4.30;97.50;;;;;;5061627;28;20056;-73
2024/01/09 00:41:48;;;;;;;12.88;4.90;;;-4.40;97.50;;;;;;5061784;28;20059;-73
2024/01/09 00:44:14;;;;;;;13.32;4.85;;;-4.40;97.50;;;;;;5062127;28;20024;-73
2024/01/09 00:46:42;;;;;;;13.13;5.30;;;-4.40;97.50;;;;;;5078525;23;20044;-73
2024/01/09 00:49:08;;;;;;;10.50;3.60;;;-4.50;97.60;;;;;;5056076;28;20042;-73
2024/01/09 00:51:35;;;;;;;9.80;3.88;;;-4.40;97.70;;;;;;5059590;28;20028;-73
2024/01/09 00:54:01;;;;;;;;;;;-4.50;97.60;;;;;;5059763;28;20394;-72
2024/01/09 00:56:27;;;;;;;10.80;3.92;;;-4.50;97.70;;;;;;5066493;28;19919;-73
2024/01/09 00:58:53;;;;;;;11.02;4.07;;;-4.50;97.80;;;;;;5063384;28;20027;-73
2024/01/09 01:01:19;;;;;;;13.38;4.72;;;-4.60;97.90;;;;;;5060996;28;20016;-73
2024/01/09 01:03:46;;;;;;;8.93;4.18;;;-4.60;98.00;;;;;;5056906;28;20029;-73
2024/01/09 01:06:14;;;;;;;8.80;3.60;;;-4.60;98.00;;;;;;5062796;28;20073;-73
2024/01/09 01:08:42;;;;;;;;;;;-4.60;98.00;;;;;;5056844;28;20029;-73
2024/01/09 01:11:08;;;;;;;10.45;4.18;;;-4.60;98.10;;;;;;5059976;28;19919;-73
2024/01/09 01:13:34;;;;;;;11.13;5.05;;;-4.70;98.10;;;;;;5064292;28;20025;-73
2024/01/09 01:15:59;;;;;;;12.98;4.68;;;-4.70;98.30;;;;;;5061612;28;20028;-73
2024/01/09 01:18:25;;;;;;;12.00;4.90;;;-4.70;98.20;;;;;;5059923;28;20115;-73
2024/01/09 01:20:51;;;;;;;12.27;4.90;;;-4.70;98.10;;;;;;5061948;28;20479;-73
2024/01/09 01:23:16;;;;;;;11.13;4.28;;;-4.80;98.30;;;;;;5065285;28;20098;-73
2024/01/09 01:25:42;;;;;;;13.02;4.95;;;-4.80;98.50;;;;;;5060540;28;20021;-73
2024/01/09 01:28:07;;;;;;;15.85;5.30;;;-4.80;98.60;;;;;;5062242;28;20037;-73
2024/01/09 01:30:33;;;;;;;10.30;4.60;;;-4.80;98.60;;;;;;5064726;28;20035;-73
2024/01/09 01:32:58;;;;;;;11.13;4.32;;;-4.80;98.50;;;;;;5060810;28;20029;-73
2024/01/09 01:35:25;;;;;;;12.52;3.97;;;-4.90;98.60;;;;;;5064013;28;20021;-73
2024/01/09 01:37:53;;;;;;;13.88;5.05;;;-4.90;98.80;;;;;;5065881;28;20029;-73
2024/01/09 01:40:18;;;;;;;14.75;5.25;;;-4.90;98.80;;;;;;5059933;28;20039;-73
2024/01/09 01:42:44;;;;;;;11.60;4.47;;;-4.90;98.60;;;;;;5056277;28;20419;-73
2024/01/09 01:45:17;;;;;;;12.57;4.45;;;-4.90;98.70;;;;;;5061435;28;20494;-73
2024/01/09 01:47:48;;;;;;;12.30;4.78;;;-4.90;98.70;;;;;;5061275;28;20032;-73
2024/01/09 01:50:15;;;;;;;11.05;4.72;;;-5.00;98.70;;;;;;5057671;28;20139;-73
2024/01/09 01:52:45;;;;;;;9.82;4.07;;;-5.00;98.80;;;;;;5057722;28;20032;-73
2024/01/09 01:55:11;;;;;;;18.15;5.13;;;-5.00;98.80;;;;;;5060706;28;20077;-73
2024/01/09 01:57:38;;;;;;;13.77;5.43;;;-4.90;98.70;;;;;;5060572;28;20024;-73
2024/01/09 02:00:06;;;;;;;12.07;5.15;;;-4.90;98.70;;;;;;5064430;28;20024;-73
2024/01/09 02:02:32;;;;;;;15.00;5.25;;;-4.90;98.70;;;;;;5060657;28;20081;-73
2024/01/09 02:05:01;;;;;;;10.63;4.22;;;-5.00;98.70;;;;;;5057813;28;20112;-73
2024/01/09 02:07:28;;;;;;;11.73;4.38;;;-5.00;98.70;;;;;;5061316;28;20044;-73
2024/01/09 02:09:54;;;;;;;13.90;5.30;;;-5.00;98.90;;;;;;5060368;28;20067;-73
2024/01/09 02:12:22;;;;;;;13.15;4.78;;;-5.00;98.90;;;;;;5060364;28;20479;-73
2024/01/09 02:14:50;;;;;;;12.13;4.43;;;-5.00;98.90;;;;;;5064760;28;20021;-73
2024/01/09 02:17:15;;;;;;;9.80;4.20;;;-5.00;98.80;;;;;;5064184;28;20145;-73
2024/01/09 02:19:41;;;;;;;11.80;4.82;;;-4.90;98.80;;;;;;5059226;28;20168;-73
2024/01/09 02:22:09;;;;;;;11.70;4.80;;;-4.90;98.80;;;;;;5063626;28;20063;-73
2024/01/09 02:24:35;;;;;;;15.27;4.68;;;-4.90;98.70;;;;;;5061277;28;20033;-73
2024/01/09 02:27:04;;;;;;;10.90;5.30;;;-4.90;98.70;;;;;;5067982;28;20037;-73
2024/01/09 02:29:33;;;;;;;11.32;4.43;;;-5.00;98.80;;;;;;5064524;28;20029;-73
2024/01/09 02:32:00;;;;;;;10.50;4.10;;;-5.00;98.80;;;;;;5065182;28;20016;-73
2024/01/09 02:34:29;;;;;;;10.40;4.20;;;-5.00;98.80;;;;;;5064923;28;20024;-73
2024/01/09 02:36:59;;;;;;;11.00;4.55;;;-5.00;98.80;;;;;;5067126;28;20071;-73
2024/01/09 02:39:29;;;;;;;12.13;4.28;;;-5.00;98.90;;;;;;5063105;28;20021;-73
2024/01/09 02:41:59;;;;;;;13.43;4.90;;;-5.10;98.90;;;;;;5063699;28;20463;-73
2024/01/09 02:44:27;;;;;;;10.75;4.35;;;-5.10;98.90;;;;;;5062665;28;20016;-73
2024/01/09 02:46:53;;;;;;;9.43;4.47;;;-5.00;98.90;;;;;;5069201;28;20500;-73
2024/01/09 02:49:23;;;;;;;11.90;4.28;;;-5.00;98.80;;;;;;5063064;28;20065;-73
2024/01/09 02:51:49;;;;;;;8.45;3.67;;;-5.00;98.80;;;;;;5060497;28;20081;-73
2024/01/09 02:54:15;;;;;;;15.05;4.40;;;-5.00;98.80;;;;;;5055418;28;20476;-73
2024/01/09 02:56:41;;;;;;;11.90;4.75;;;-5.00;98.90;;;;;;5063139;28;20556;-73
2024/01/09 02:59:07;;;;;;;11.27;3.83;;;-5.10;98.90;;;;;;5057794;28;20035;-73
2024/01/09 03:01:35;;;;;;;10.90;4.28;;;-5.00;98.80;;;;;;5066014;28;20557;-73
2024/01/09 03:04:03;;;;;;;13.95;4.90;;;-5.00;98.80;;;;;;5059233;28;20036;-73
2024/01/09 03:06:28;;;;;;;10.80;4.22;;;-5.00;98.70;;;;;;5063388;28;20117;-73
2024/01/09 03:08:54;;;;;;;14.05;4.63;;;-5.00;98.80;;;;;;5063642;28;20067;-72
2024/01/09 03:11:21;;;;;;;11.07;4.22;;;-5.10;98.80;;;;;;5060407;28;20028;-72
2024/01/09 03:13:47;;;;;;;13.77;4.78;;;-5.10;98.80;;;;;;5064095;28;20086;-73
2024/01/09 03:16:14;;;;;;;10.93;4.55;;;-5.00;98.80;;;;;;5061842;28;20032;-73
2024/01/09 03:18:40;;;;;;;10.52;5.10;;;-5.10;98.80;;;;;;5061492;28;20036;-73
2024/01/09 03:21:06;;;;;;;12.17;4.80;;;-5.10;98.90;;;;;;5065254;28;20103;-72
2024/01/09 03:23:32;;;;;;;9.65;4.57;;;-5.10;98.90;;;;;;5062303;28;20050;-73
2024/01/09 03:25:58;;;;;;;11.75;4.30;;;-5.10;98.90;;;;;;5064429;28;20577;-73
2024/01/09 03:28:28;;;;;;;13.00;3.75;;;-5.20;99.00;;;;;;5065335;28;20020;-73
2024/01/09 03:30:54;;;;;;;9.15;3.75;;;-5.20;99.00;;;;;;5062901;28;20028;-73
2024/01/09 03:33:19;;;;;;;10.73;4.60;;;-5.20;99.10;;;;;;5063215;28;20703;-73
2024/01/09 03:35:45;;;;;;;11.00;4.20;;;-5.30;99.10;;;;;;5063900;28;20043;-73
2024/01/09 03:38:11;;;;;;;7.70;3.53;;;-5.30;99.30;;;;;;5063404;28;20489;-73
2024/01/09 03:40:39;;;;;;;11.88;4.40;;;-5.30;99.40;;;;;;5062129;28;20041;-73
2024/01/09 03:43:07;;;;;;;14.60;4.88;;;-5.30;99.40;;;;;;5060896;28;20120;-72
2024/01/09 03:45:33;;;;;;;10.48;3.88;;;-5.40;99.30;;;;;;5064338;28;20111;-72
2024/01/09 03:47:59;;;;;;;12.60;3.88;;;-5.40;99.30;;;;;;5065240;28;20194;-72
2024/01/09 03:50:24;;;;;;;8.90;4.28;;;-5.30;99.30;;;;;;5061713;28;20035;-73
2024/01/09 03:52:50;;;;;;;11.38;4.72;;;-5.40;99.30;;;;;;5064102;28;20036;-73
2024/01/09 03:55:16;;;;;;;9.77;4.65;;;-5.40;99.30;;;;;;5059029;28;20208;-73
2024/01/09 03:57:42;;;;;;;12.20;4.70;;;-5.40;99.40;;;;;;5061609;28;20043;-73
2024/01/09 04:00:08;;;;;;;18.33;6.18;;;-5.50;99.50;;;;;;5055246;28;20028;-73
2024/01/09 04:02:34;;;;;;;13.27;5.20;;;-5.50;99.50;;;;;;5058790;28;20037;-73
2024/01/09 04:05:01;;;;;;;16.38;5.45;;;-5.50;99.50;;;;;;5061489;28;20161;-72
2024/01/09 04:07:27;;;;;;;15.00;5.72;;;-5.50;99.60;;;;;;5062355;28;20031;-73
2024/01/09 04:09:57;;;;;;;15.20;5.03;;;-5.50;99.70;;;;;;5063771;28;20020;-73
2024/01/09 04:12:25;;;;;;;11.57;4.35;;;-5.50;99.60;;;;;;5059155;28;20484;-73
2024/01/09 04:14:50;;;;;;;12.75;4.75;;;-5.50;99.60;;;;;;5060068;28;20748;-73
2024/01/09 04:17:16;;;;;;;18.90;5.80;;;-5.50;99.60;;;;;;5063417;28;20123;-73
2024/01/09 04:19:41;;;;;;;21.65;6.35;;;-5.60;99.60;;;;;;5063384;28;20522;-73
2024/01/09 04:22:07;;;;;;;20.92;6.03;;;-5.60;99.60;;;;;;5061170;28;20028;-73
2024/01/09 04:24:36;;;;;;;13.10;5.47;;;-5.60;99.70;;;;;;5062104;28;20112;-72
2024/01/09 04:27:05;;;;;;;15.63;5.57;;;-5.50;99.70;;;;;;5062887;28;20075;-72
2024/01/09 04:29:33;;;;;;;9.65;4.15;;;-5.50;99.70;;;;;;5065584;28;20103;-72
2024/01/09 04:31:59;;;;;;;10.90;3.72;;;-5.50;99.60;;;;;;5062285;28;20572;-73
2024/01/09 04:34:25;;;;;;;15.57;4.95;;;-5.50;99.60;;;;;;5059504;28;20071;-73
2024/01/09 04:36:53;;;;;;;12.93;4.60;;;-5.50;99.60;;;;;;5063379;28;20429;-72
2024/01/09 04:39:18;;;;;;;;;;;-5.60;99.80;;;;;;5063889;28;20028;-72
2024/01/09 04:41:44;;;;;;;10.82;4.15;;;-5.60;99.90;;;;;;5066411;28;19912;-72
2024/01/09 04:44:10;;;;;;;8.90;3.90;;;-5.60;99.90;;;;;;5062218;28;20024;-73
2024/01/09 04:46:38;;;;;;;8.73;3.70;;;-5.60;99.90;;;;;;5056367;28;20044;-73
2024/01/09 04:49:03;;;;;;;9.93;3.92;;;-5.60;99.90;;;;;;5061557;28;20032;-72
2024/01/09 04:51:30;;;;;;;10.82;4.47;;;-5.60;99.80;;;;;;5061671;28;20028;-72
2024/01/09 04:53:55;;;;;;;14.70;4.68;;;-5.60;99.90;;;;;;5057333;28;20063;-72
2024/01/09 04:56:21;;;;;;;13.05;4.38;;;-5.60;99.90;;;;;;5059833;28;20510;-72
2024/01/09 04:58:47;;;;;;;14.18;5.43;;;-5.70;99.90;;;;;;5060673;28;20032;-73
2024/01/09 05:01:12;;;;;;;15.88;5.05;;;-5.70;99.90;;;;;;5065496;28;20055;-72
2024/01/09 05:03:38;;;;;;;11.27;4.63;;;-5.70;99.90;;;;;;5057584;28;20449;-72
2024/01/09 05:06:04;;;;;;;13.18;5.20;;;-5.60;99.90;;;;;;5063205;28;20032;-72
2024/01/09 05:08:29;;;;;;;11.60;4.55;;;-5.40;99.90;;;;;;5059291;28;20125;-72
2024/01/09 05:10:57;;;;;;;14.25;4.63;;;-5.60;99.80;;;;;;5063623;28;20060;-73
2024/01/09 05:13:22;;;;;;;;;;;-5.70;99.90;;;;;;5067923;28;20723;-72
2024/01/09 05:15:48;;;;;;;11.80;3.72;;;-5.80;99.90;;;;;;5060793;28;19947;-72
2024/01/09 05:18:13;;;;;;;11.77;4.35;;;-5.80;99.90;;;;;;5065803;28;20032;-72
2024/01/09 05:20:39;;;;;;;12.15;4.15;;;-5.80;99.90;;;;;;5065686;28;20062;-72
2024/01/09 05:23:07;;;;;;;13.32;4.65;;;-5.80;99.90;;;;;;5057667;28;20107;-73
2024/01/09 05:25:33;;;;;;;10.32;3.95;;;-5.80;99.90;;;;;;5063717;28;20078;-73
2024/01/09 05:27:58;;;;;;;11.35;3.95;;;-5.80;99.90;;;;;;5060867;28;20033;-73
2024/01/09 05:30:26;;;;;;;10.27;3.92;;;-5.80;99.90;;;;;;5057693;28;20014;-73
2024/01/09 05:32:54;;;;;;;11.65;4.25;;;-5.80;99.90;;;;;;5057713;28;20486;-73
2024/01/09 05:35:20;;;;;;;11.57;4.43;;;-5.80;99.90;;;;;;5059710;28;20526;-73
2024/01/09 05:37:48;;;;;;;7.82;3.97;;;-5.80;99.90;;;;;;5056230;28;20096;-73
2024/01/09 05:40:13;;;;;;;8.32;4.00;;;-5.80;99.90;;;;;;5064282;28;20025;-73
2024/01/09 05:42:39;;;;;;;10.45;4.75;;;-5.70;99.90;;;;;;5063357;28;20033;-73
2024/01/09 05:45:05;;;;;;;11.82;4.63;;;-5.70;99.90;;;;;;5063922;28;20028;-72
2024/01/09 05:47:31;;;;;;;11.25;4.47;;;-5.70;99.90;;;;;;5059145;28;20025;-72
2024/01/09 05:49:59;;;;;;;14.02;4.72;;;-5.70;99.90;;;;;;5063783;28;20025;-72
2024/01/09 05:52:25;;;;;;;12.00;3.80;;;-5.80;99.90;;;;;;5065902;28;20020;-72
2024/01/09 05:54:55;;;;;;;12.23;4.78;;;-5.80;99.90;;;;;;5066784;28;20499;-73
2024/01/09 05:57:25;;;;;;;9.50;4.35;;;-5.70;99.90;;;;;;5064003;28;20660;-72
2024/01/09 05:59:53;;;;;;;11.60;4.50;;;-5.70;99.90;;;;;;5069440;28;20028;-73
2024/01/09 06:02:20;;;;;;;14.85;4.97;;;-5.70;99.90;;;;;;5063871;28;20036;-73
2024/01/09 06:04:46;;;;;;;;;;;-5.70;99.90;;;;;;5063886;28;20021;-72
2024/01/09 06:07:15;;;;;;;10.75;5.13;;;-5.80;99.90;;;;;;5069258;28;20317;-73
2024/01/09 06:09:42;;;;;;;11.57;4.30;;;-5.80;99.90;;;;;;5067013;28;20031;-72
2024/01/09 06:12:10;;;;;;;12.85;4.25;;;-5.80;99.90;;;;;;5069355;28;20036;-72
2024/01/09 06:14:36;;;;;;;9.88;4.57;;;-5.80;99.90;;;;;;5066253;28;20043;-72
2024/01/09 06:17:01;;;;;;;14.32;4.45;;;-5.80;99.90;;;;;;5068804;28;20047;-72
2024/01/09 06:19:30;;;;;;;12.70;4.68;;;-5.90;99.90;;;;;;5066412;28;20033;-73
2024/01/09 06:21:55;;;;;;;12.05;4.13;;;-5.90;99.90;;;;;;5062776;28;20123;-72
2024/01/09 06:24:21;;;;;;;11.20;4.35;;;-5.90;99.90;;;;;;5062210;28;20120;-72
2024/01/09 06:26:46;;;;;;;13.82;4.78;;;-6.00;99.90;;;;;;5074241;28;20024;-73
2024/01/09 06:29:12;;;;;;;10.73;4.80;;;-6.00;99.90;;;;;;5059283;28;20021;-72
2024/01/09 06:31:43;;;;;;;15.65;5.05;;;-5.90;99.90;;;;;;5067277;28;20032;-72
2024/01/09 06:34:08;;;;;;;11.25;4.72;;;-5.90;99.90;;;;;;5062557;28;20095;-72
2024/01/09 06:36:38;;;;;;;12.15;4.55;;;-5.90;99.90;;;;;;5064903;28;20032;-72
2024/01/09 06:39:04;;;;;;;14.23;5.38;;;-5.90;99.90;;;;;;5056915;28;20036;-73
2024/01/09 06:41:32;;;;;;;15.50;5.15;;;-5.90;99.90;;;;;;5056555;28;20036;-72
2024/01/09 06:43:57;;;;;;;13.65;4.60;;;-5.80;99.90;;;;;;5053280;28;20029;-72
2024/01/09 06:46:23;;;;;;;13.65;5.00;;;-5.80;99.90;;;;;;5064741;23;20055;-72
2024/01/09 06:48:49;;;;;;;13.65;5.00;;;-5.80;99.90;;;;;;5081406;28;20119;-73
2024/01/09 06:51:17;;;;;;;12.38;4.28;;;-5.70;99.90;;;;;;5078488;28;20035;-72
2024/01/09 06:53:42;;;;;;;13.38;4.85;;;-5.70;99.90;;;;;;5078676;28;20459;-73
2024/01/09 06:56:12;;;;;;;11.48;4.85;;;-5.70;99.90;;;;;;5075664;28;20036;-72
2024/01/09 06:58:39;;;;;;;12.95;4.53;;;-5.80;99.90;;;;;;5084260;28;20039;-73
2024/01/09 07:01:08;;;;;;;14.15;4.45;;;-5.80;99.90;;;;;;5081269;28;20029;-73
2024/01/09 07:03:35;;;;;;;12.63;4.43;;;-5.70;99.90;;;;;;5079609;28;20509;-73
2024/01/09 07:06:01;;;;;;;12.65;4.20;;;-5.80;99.90;;;;;;5085980;28;20032;-72
2024/01/09 07:08:28;;;;;;;11.05;4.30;;;-5.80;99.90;;;;;;5077865;28;20044;-73
2024/01/09 07:10:54;;;;;;;10.70;4.50;;;-5.90;99.90;;;;;;5083435;28;20439;-73
2024/01/09 07:13:21;;;;;;;11.52;4.47;;;-5.90;99.90;;;;;;5077553;28;20070;-72
2024/01/09 07:15:46;;;;;;;13.07;5.18;;;-5.90;99.90;;;;;;5085615;28;20036;-73
2024/01/09 07:18:12;;;;;;;13.20;4.65;;;-5.90;99.90;;;;;;5086609;28;20088;-73
2024/01/09 07:20:38;;;;;;;12.60;4.82;;;-5.90;99.90;;;;;;5080334;28;20078;-73
2024/01/09 07:23:05;;;;;;;13.60;4.63;;;-6.00;99.90;;;;;;5077460;28;20046;-73
2024/01/09 07:25:31;;;;;;;16.90;5.32;;;-5.90;99.90;;;;;;5088460;22;20482;-73
2024/01/09 07:27:59;;;;;;;11.73;4.10;;;-5.90;99.90;;;;;;5087830;28;20127;-73
2024/01/09 07:30:24;;;;;;;10.85;4.55;;;-5.90;99.90;;;;;;5085611;28;20066;-73
2024/01/09 07:32:50;;;;;;;12.15;4.43;;;-5.90;99.90;;;;;;5082453;28;20028;-73
2024/01/09 07:35:16;;;;;;;23.38;5.03;;;-6.00;99.90;;;;;;5080988;28;20035;-73
2024/01/09 07:37:41;;;;;;;16.98;4.80;;;-6.00;99.90;;;;;;5088446;28;20038;-73
2024/01/09 07:40:07;;;;;;;11.07;5.07;;;-6.00;99.90;;;;;;5086445;28;20107;-75
2024/01/09 07:42:33;;;;;;;10.70;4.40;;;-5.90;99.90;;;;;;5087139;28;20494;-73
2024/01/09 07:44:58;;;;;;;14.00;4.55;;;-5.90;99.90;;;;;;5084100;28;20032;-72
2024/01/09 07:47:26;;;;;;;11.23;4.32;;;-5.90;99.90;;;;;;5084729;28;20538;-73
2024/01/09 07:49:52;;;;;;;14.48;4.95;;;-6.00;99.90;;;;;;5081007;28;20107;-72
2024/01/09 07:52:18;;;;;;;12.48;4.55;;;-5.90;99.90;;;;;;5086199;28;20218;-73
2024/01/09 07:54:46;;;;;;;13.13;4.60;;;-6.00;99.90;;;;;;5080775;28;20033;-72
2024/01/09 07:57:12;;;;;;;12.98;5.03;;;-6.00;99.90;;;;;;5083557;28;20035;-73
2024/01/09 07:59:39;;;;;;;14.23;5.70;;;-6.00;99.90;;;;;;5086704;28;20032;-73
2024/01/09 08:02:06;;;;;;;10.07;4.10;;;-6.00;99.90;;;;;;5083727;28;20020;-73
2024/01/09 08:04:33;;;;;;;;;;;-6.00;99.90;;;;;;5079245;28;20147;-73
2024/01/09 08:06:58;;;;;;;15.85;4.38;;;-5.90;99.90;;;;;;5076855;28;20656;-73
2024/01/09 08:09:24;;;;;;;15.15;5.15;;;-5.90;99.90;;;;;;5073012;28;20039;-72
2024/01/09 08:11:49;;;;;;;14.32;4.78;;;-5.80;99.90;;;;;;5075538;28;20032;-72
2024/01/09 08:14:15;;;;;;;12.15;4.85;;;-5.80;99.90;;;;;;5084534;28;20063;-73
2024/01/09 08:16:41;;;;;;;13.57;4.80;;;-5.70;99.90;;;;;;5080805;28;20028;-72
2024/01/09 08:19:07;;;;;;;11.93;3.88;;;-5.70;99.90;;;;;;5078120;28;20430;-72
2024/01/09 08:21:35;;;;;;;14.55;5.40;;;-5.60;99.90;;;;;;5086739;28;20035;-73
2024/01/09 08:24:01;;;;;;;17.50;5.57;;;-5.60;99.90;;;;;;5080245;28;20020;-73
2024/01/09 08:26:26;;;;;;;14.13;5.63;;;-5.60;99.90;;;;;;5082529;28;20028;-72
2024/01/09 08:28:52;;;;;;;14.10;5.25;;;-5.60;99.90;;;;;;5080808;28;20017;-72
2024/01/09 08:31:17;;;;;;;16.40;5.60;;;-5.60;99.90;;;;;;5082555;28;20032;-73
2024/01/09 08:33:43;;;;;;;11.43;4.75;;;-5.60;99.90;;;;;;5076417;28;20661;-73
2024/01/09 08:36:11;;;;;;;17.52;5.60;;;-5.60;99.90;;;;;;5080040;28;20059;-72
2024/01/09 08:38:37;;;;;;;12.38;4.97;;;-5.60;99.90;;;;;;5081574;28;20032;-73
2024/01/09 08:41:04;;;;;;;14.80;5.47;;;-5.50;99.90;;;;;;5085659;28;20445;-73
2024/01/09 08:43:29;;;;;;;12.63;4.13;;;-5.50;99.90;;;;;;5078042;28;20032;-73
2024/01/09 08:45:55;;;;;;;13.40;5.38;;;-5.60;99.90;;;;;;5082102;28;20028;-72
2024/01/09 08:48:20;;;;;;;14.02;5.20;;;-5.50;99.90;;;;;;5085096;28;20032;-73
2024/01/09 08:50:46;;;;;;;14.35;5.80;;;-5.50;99.90;;;;;;5082230;28;20035;-73
2024/01/09 08:53:12;;;;;;;12.60;5.80;;;-5.50;99.90;;;;;;5078311;28;20390;-73
2024/01/09 08:55:37;;;;;;;15.77;5.10;;;-5.40;99.90;;;;;;5078159;28;20052;-72
2024/01/09 08:58:03;;;;;;;17.70;5.47;;;-5.40;99.90;;;;;;5078802;28;20032;-73
2024/01/09 09:00:29;;;;;;;17.92;4.85;;;-5.40;99.90;;;;;;5082499;28;20051;-72
2024/01/09 09:02:55;;;;;;;16.23;5.65;;;-5.30;99.90;;;;;;5081487;28;20390;-73
2024/01/09 09:05:20;;;;;;;14.65;5.43;;;-5.30;99.90;;;;;;5080165;28;20437;-72
2024/01/09 09:07:47;;;;;;;12.55;4.88;;;-5.20;99.90;;;;;;5078189;28;20024;-73
2024/01/09 09:10:12;;;;;;;13.80;5.07;;;-5.20;99.90;;;;;;5076767;28;20052;-73
2024/01/09 09:12:38;;;;;;;17.35;6.07;;;-5.20;99.90;;;;;;5080708;28;20070;-73
2024/01/09 09:15:04;;;;;;;17.08;5.60;;;-5.10;99.90;;;;;;5079706;28;20108;-73
2024/01/09 09:17:30;;;;;;;16.48;5.65;;;-5.00;99.90;;;;;;5080308;28;20154;-73
2024/01/09 09:19:57;;;;;;;16.27;6.00;;;-5.00;99.90;;;;;;5083516;28;20115;-73
2024/01/09 09:22:25;;;;;;;15.50;5.90;;;-5.00;99.90;;;;;;5087001;28;20561;-73
2024/01/09 09:24:54;;;;;;;19.92;5.38;;;-5.00;99.90;;;;;;5080187;28;20020;-73
2024/01/09 09:27:22;;;;;;;12.57;5.47;;;-4.90;99.90;;;;;;5087674;28;20383;-73
2024/01/09 09:29:48;;;;;;;15.90;6.15;;;-4.80;99.90;;;;;;5079236;28;20111;-73
2024/01/09 09:32:13;;;;;;;15.80;5.38;;;-4.80;99.90;;;;;;5087034;28;20459;-73
2024/01/09 09:34:42;;;;;;;18.60;5.93;;;-4.80;99.90;;;;;;5082332;28;20043;-73
2024/01/09 09:37:12;;;;;;;16.40;5.82;;;-4.70;99.90;;;;;;5081491;28;20111;-73
2024/01/09 09:39:38;;;;;;;15.18;6.30;;;-4.70;99.90;;;;;;5083256;28;20417;-73
2024/01/09 09:42:03;;;;;;;13.80;5.60;;;-4.60;99.90;;;;;;5080468;28;20127;-73
2024/01/09 09:44:29;;;;;;;14.68;5.47;;;-4.60;99.90;;;;;;5082474;28;20031;-73
2024/01/09 09:46:56;;;;;;;12.80;5.05;;;-4.50;99.90;;;;;;5087368;28;20035;-72
2024/01/09 09:49:24;;;;;;;13.82;5.30;;;-4.50;99.90;;;;;;5087285;28;20024;-73
2024/01/09 09:51:51;;;;;;;16.83;5.65;;;-4.50;99.90;;;;;;5082605;28;20032;-73
2024/01/09 09:54:18;;;;;;;16.02;5.82;;;-4.40;99.90;;;;;;5080153;28;20111;-73
2024/01/09 09:56:45;;;;;;;16.52;5.07;;;-4.40;99.90;;;;;;5083383;28;20690;-73
2024/01/09 09:59:11;;;;;;;13.68;5.38;;;-4.30;99.90;;;;;;5081335;28;20028;-73
2024/01/09 10:01:37;;;;;;;17.58;5.70;;;-4.30;99.90;;;;;;5079337;28;20034;-72
2024/01/09 10:04:13;;;;;;;18.65;6.10;;;-4.20;99.90;;;;;;5079972;28;20063;-73
2024/01/09 10:06:41;;;;;;;13.75;5.22;;;-4.20;99.90;;;;;;5081344;28;20060;-73
2024/01/09 10:09:10;;;;;;;21.30;5.80;;;-4.10;99.90;;;;;;5080125;28;20079;-73
2024/01/09 10:11:35;;;;;;;14.98;5.55;;;-4.10;99.80;;;;;;5081644;28;20035;-73
2024/01/09 10:14:04;;;;;;;17.50;5.90;;;-4.00;99.90;;;;;;5083809;28;20020;-73
2024/01/09 10:16:53;;;;;;;15.50;5.97;;;-4.00;99.80;;;;;;5082783;28;20059;-73
2024/01/09 10:19:19;;;;;;;14.15;5.10;;;-3.90;99.80;;;;;;5084731;28;20032;-73
2024/01/09 10:21:47;;;;;;;13.68;5.60;;;-3.80;99.80;;;;;;5081698;28;20035;-73
2024/01/09 10:24:17;;;;;;;17.52;6.22;;;-3.60;99.90;;;;;;5083771;28;20095;-73
2024/01/09 10:26:43;;;;;;;15.77;6.15;;;-3.40;99.90;;;;;;5077898;28;20679;-73
2024/01/09 10:29:09;;;;;;;13.73;5.93;;;-3.20;99.90;;;;;;5082697;28;20036;-73
2024/01/09 10:31:38;;;;;;;14.70;5.50;;;-3.00;99.90;;;;;;5084201;28;20123;-73
2024/01/09 10:34:05;;;;;;;13.98;5.38;;;-2.90;99.90;;;;;;5085424;28;20050;-73
2024/01/09 10:36:34;;;;;;;14.80;5.85;;;-2.80;99.30;;;;;;5084143;28;20024;-73
2024/01/09 10:39:06;;;;;;;18.85;5.75;;;-2.80;99.20;;;;;;5088669;28;20067;-73
2024/01/09 10:41:33;;;;;;;19.52;7.10;;;-2.70;99.30;;;;;;5083283;28;20036;-73
2024/01/09 10:44:05;;;;;;;15.43;5.80;;;-2.60;98.90;;;;;;5080713;28;20417;-73
2024/01/09 10:46:36;;;;;;;14.57;5.88;;;-2.30;99.40;;;;;;5079740;28;20032;-75
2024/01/09 10:49:03;;;;;;;15.38;6.45;;;-2.10;99.60;;;;;;5084629;28;20025;-73
2024/01/09 10:51:31;;;;;;;15.25;6.00;;;-1.80;99.60;;;;;;5083979;28;20036;-74
2024/01/09 10:53:58;;;;;;;12.55;5.18;;;-1.60;99.40;;;;;;5085974;28;20089;-74
2024/01/09 10:56:28;;;;;;;;;;;-1.40;99.10;;;;;;5082676;28;20029;-74
2024/01/09 10:58:53;;;;;;;15.10;6.03;;;-1.10;98.90;;;;;;5083923;28;19995;-74
2024/01/09 11:01:21;;;;;;;17.15;6.25;;;-0.80;98.70;;;;;;5081688;28;20143;-75
2024/01/09 11:03:47;;;;;;;14.25;5.80;;;-0.60;98.30;;;;;;5082131;28;20103;-74
2024/01/09 11:06:18;;;;;;;15.15;5.78;;;-0.30;98.60;;;;;;5079375;28;20077;-74
2024/01/09 11:08:50;;;;;;;24.17;6.35;;;-0.10;98.10;;;;;;5075607;28;20028;-74
2024/01/09 11:11:20;;;;;;;15.98;6.43;;;0.10;97.40;;;;;;5081379;28;20570;-74
2024/01/09 11:13:48;;;;;;;14.98;5.85;;;0.20;96.40;;;;;;5081016;28;20078;-74
2024/01/09 11:16:17;;;;;;;11.68;5.93;;;0.20;96.20;;;;;;5087141;28;20032;-74
2024/01/09 11:18:44;;;;;;;13.57;5.32;;;0.60;97.30;;;;;;5081635;28;20678;-74
2024/01/09 11:21:13;;;;;;;12.70;5.17;;;1.00;96.90;;;;;;5072717;28;20126;-74
2024/01/09 11:23:45;;;;;;;14.55;6.07;;;1.30;97.10;;;;;;5080682;28;20032;-74
2024/01/09 11:26:13;;;;;;;13.15;5.32;;;1.80;97.20;;;;;;5080772;28;20485;-71
2024/01/09 11:28:42;;;;;;;22.35;5.65;;;1.90;95.30;;;;;;5082455;28;20048;-71
2024/01/09 11:31:12;;;;;;;16.67;6.90;;;2.10;95.30;;;;;;5086519;28;20039;-71
2024/01/09 11:33:41;;;;;;;13.35;5.28;;;2.60;96.00;;;;;;5081177;28;20111;-73
2024/01/09 11:36:11;;;;;;;10.13;5.20;;;3.00;94.80;;;;;;5087966;28;20051;-72
2024/01/09 11:38:37;;;;;;;11.57;5.40;;;3.10;94.40;;;;;;5087852;28;20132;-72
2024/01/09 11:41:11;;;;;;;12.45;4.97;;;3.70;94.60;;;;;;5079330;28;20059;-72
2024/01/09 11:44:02;;;;;;;15.93;5.93;;;3.80;93.00;;;;;;5078925;28;20016;-72
2024/01/09 11:46:30;;;;;;;14.27;5.85;;;3.80;92.80;;;;;;5085025;28;20050;-72
2024/01/09 11:48:56;;;;;;;15.60;5.90;;;3.80;91.90;;;;;;5079750;28;20052;-72
2024/01/09 11:51:22;;;;;;;16.25;5.30;;;4.00;92.10;;;;;;5082576;28;20050;-72
2024/01/09 11:53:49;;;;;;;12.50;5.00;;;4.00;91.80;;;;;;5085492;28;20039;-70
2024/01/09 11:56:16;;;;;;;11.95;5.65;;;4.00;91.70;;;;;;5079363;28;20032;-72
2024/01/09 11:58:45;;;;;;;20.67;6.78;;;3.80;91.10;;;;;;5088121;28;20608;-71
2024/01/09 12:01:12;;;;;;;17.27;6.05;;;3.70;90.70;;;;;;5081668;28;20032;-72
2024/01/09 12:03:40;;;;;;;17.80;6.85;;;3.70;91.30;;;;;;5078436;28;20518;-72
2024/01/09 12:06:06;;;;;;;18.15;7.15;;;3.60;91.20;;;;;;5074325;28;20040;-71
2024/01/09 12:08:35;;;;;;;14.93;6.68;;;3.40;91.00;;;;;;5082051;28;20028;-71
2024/01/09 12:11:02;;;;;;;17.13;7.32;;;3.10;90.70;;;;;;5070909;28;20111;-71
2024/01/09 12:13:28;;;;;;;14.57;6.60;;;2.80;90.70;;;;;;5073565;28;20016;-71
2024/01/09 12:15:57;;;;;;;14.55;5.82;;;2.70;91.10;;;;;;5089283;28;20031;-71
2024/01/09 12:18:24;;;;;;;16.95;6.85;;;2.50;90.90;;;;;;5082900;28;20020;-71
2024/01/09 12:20:50;;;;;;;16.25;6.00;;;2.20;91.10;;;;;;5085144;28;20020;-71
2024/01/09 12:23:16;;;;;;;15.27;5.97;;;2.20;91.50;;;;;;5079222;28;20036;-71
2024/01/09 12:25:44;;;;;;;17.13;7.00;;;2.10;91.20;;;;;;5085242;28;20052;-71
2024/01/09 12:28:10;;;;;;;13.38;5.68;;;1.90;91.00;;;;;;5081528;28;20020;-71
2024/01/09 12:30:36;;;;;;;17.52;6.95;;;1.70;91.20;;;;;;5079835;28;20029;-71
2024/01/09 12:33:04;;;;;;;11.95;5.30;;;1.50;91.50;;;;;;5080464;28;20398;-71
2024/01/09 12:35:30;;;;;;;14.48;5.47;;;1.40;91.30;;;;;;5083117;28;20521;-71
2024/01/09 12:37:55;;;;;;;11.02;4.70;;;1.20;91.30;;;;;;5082040;28;20123;-72